sensor_id;sensor_type;location;lat;lon;timestamp;pressure;altitude;pressure_sealevel;temperature;humidity
66857;BME280;53766;50.280;19.160;2023-04-24T00:00:27;97576.19;;;19.14;41.33
66857;BME280;53766;50.280;19.160;2023-04-24T00:03:14;97585.22;;;19.13;41.56
66857;BME280;53766;50.280;19.160;2023-04-24T00:05:42;97581.75;;;19.13;41.42
66857;BME280;53766;50.280;19.160;2023-04-24T00:08:10;97582.53;;;19.13;41.42
66857;BME280;53766;50.280;19.160;2023-04-24T00:10:37;97582.53;;;19.13;41.42
66857;BME280;53766;50.280;19.160;2023-04-24T00:13:05;97588.94;;;19.12;41.56
66857;BME280;53766;50.280;19.160;2023-04-24T00:15:32;97586.28;;;19.12;41.60
66857;BME280;53766;50.280;19.160;2023-04-24T00:18:00;97586.28;;;19.12;41.59
66857;BME280;53766;50.280;19.160;2023-04-24T00:20:28;97578.25;;;19.12;41.51
66857;BME280;53766;50.280;19.160;2023-04-24T00:23:03;97575.59;;;19.12;41.50
66857;BME280;53766;50.280;19.160;2023-04-24T00:25:30;97574.75;;;19.11;41.52
66857;BME280;53766;50.280;19.160;2023-04-24T00:27:57;97564.34;;;19.10;41.73
66857;BME280;53766;50.280;19.160;2023-04-24T00:30:25;97563.28;;;19.11;41.61
66857;BME280;53766;50.280;19.160;2023-04-24T00:32:52;97560.59;;;19.11;41.62
66857;BME280;53766;50.280;19.160;2023-04-24T00:35:20;97568.63;;;19.11;41.68
66857;BME280;53766;50.280;19.160;2023-04-24T00:37:47;97557.94;;;19.11;41.59
66857;BME280;53766;50.280;19.160;2023-04-24T00:40:15;97553.66;;;19.10;41.66
66857;BME280;53766;50.280;19.160;2023-04-24T00:42:43;97544.00;;;19.09;41.75
66857;BME280;53766;50.280;19.160;2023-04-24T00:45:11;97549.34;;;19.09;41.93
66857;BME280;53766;50.280;19.160;2023-04-24T00:47:39;97542.41;;;19.08;41.73
66857;BME280;53766;50.280;19.160;2023-04-24T00:50:07;97543.19;;;19.08;41.71
66857;BME280;53766;50.280;19.160;2023-04-24T00:52:35;97537.06;;;19.08;41.92
66857;BME280;53766;50.280;19.160;2023-04-24T00:55:03;97541.34;;;19.09;41.85
66857;BME280;53766;50.280;19.160;2023-04-24T00:57:30;97536.22;;;19.07;41.88
66857;BME280;53766;50.280;19.160;2023-04-24T00:59:58;97535.41;;;19.07;41.77
66857;BME280;53766;50.280;19.160;2023-04-24T01:02:26;97534.41;;;19.08;41.74
66857;BME280;53766;50.280;19.160;2023-04-24T01:04:53;97530.09;;;19.07;41.88
66857;BME280;53766;50.280;19.160;2023-04-24T01:07:21;97531.72;;;19.08;41.89
66857;BME280;53766;50.280;19.160;2023-04-24T01:09:49;97526.38;;;19.08;41.90
66857;BME280;53766;50.280;19.160;2023-04-24T01:12:19;97518.59;;;19.06;42.04
66857;BME280;53766;50.280;19.160;2023-04-24T01:14:46;97523.94;;;19.06;42.05
66857;BME280;53766;50.280;19.160;2023-04-24T01:17:14;97523.13;;;19.06;41.93
66857;BME280;53766;50.280;19.160;2023-04-24T01:19:42;97520.47;;;19.06;41.73
66857;BME280;53766;50.280;19.160;2023-04-24T01:22:15;97528.47;;;19.06;41.90
66857;BME280;53766;50.280;19.160;2023-04-24T01:24:43;97527.66;;;19.05;42.16
66857;BME280;53766;50.280;19.160;2023-04-24T01:27:11;97516.16;;;19.05;42.03
66857;BME280;53766;50.280;19.160;2023-04-24T01:29:39;97521.50;;;19.05;42.07
66857;BME280;53766;50.280;19.160;2023-04-24T01:32:07;97515.34;;;19.04;42.17
66857;BME280;53766;50.280;19.160;2023-04-24T01:34:34;97509.19;;;19.04;42.06
66857;BME280;53766;50.280;19.160;2023-04-24T01:37:02;97509.19;;;19.04;42.05
66857;BME280;53766;50.280;19.160;2023-04-24T01:39:29;97509.19;;;19.04;42.09
66857;BME280;53766;50.280;19.160;2023-04-24T01:41:57;97510.00;;;19.04;42.05
66857;BME280;53766;50.280;19.160;2023-04-24T01:44:24;97506.53;;;19.04;42.08
66857;BME280;53766;50.280;19.160;2023-04-24T01:46:54;97502.22;;;19.03;42.21
66857;BME280;53766;50.280;19.160;2023-04-24T01:49:22;97505.94;;;19.02;42.09
66857;BME280;53766;50.280;19.160;2023-04-24T01:51:49;97502.22;;;19.03;42.21
66857;BME280;53766;50.280;19.160;2023-04-24T01:54:16;97503.28;;;19.02;42.15
66857;BME280;53766;50.280;19.160;2023-04-24T01:56:45;97501.41;;;19.02;42.12
66857;BME280;53766;50.280;19.160;2023-04-24T01:59:12;97497.94;;;19.02;42.35
66857;BME280;53766;50.280;19.160;2023-04-24T02:01:40;97491.81;;;19.01;42.20
66857;BME280;53766;50.280;19.160;2023-04-24T02:04:07;97488.31;;;19.01;42.30
66857;BME280;53766;50.280;19.160;2023-04-24T02:06:36;97487.50;;;19.00;42.40
66857;BME280;53766;50.280;19.160;2023-04-24T02:09:04;97493.63;;;19.01;42.32
66857;BME280;53766;50.280;19.160;2023-04-24T02:11:31;97482.16;;;19.00;42.29
66857;BME280;53766;50.280;19.160;2023-04-24T02:14:00;97487.50;;;19.00;42.51
66857;BME280;53766;50.280;19.160;2023-04-24T02:16:28;97487.50;;;19.00;42.38
66857;BME280;53766;50.280;19.160;2023-04-24T02:18:59;97482.16;;;19.00;42.19
66857;BME280;53766;50.280;19.160;2023-04-24T02:21:26;97480.53;;;18.99;42.31
66857;BME280;53766;50.280;19.160;2023-04-24T02:23:54;97468.22;;;18.98;42.56
66857;BME280;53766;50.280;19.160;2023-04-24T02:26:22;97474.38;;;18.99;42.29
66857;BME280;53766;50.280;19.160;2023-04-24T02:28:49;97470.91;;;18.98;42.54
66857;BME280;53766;50.280;19.160;2023-04-24T02:31:17;97477.03;;;18.99;42.51
66857;BME280;53766;50.280;19.160;2023-04-24T02:33:44;97472.75;;;18.98;42.39
66857;BME280;53766;50.280;19.160;2023-04-24T02:36:11;97462.91;;;18.98;42.48
66857;BME280;53766;50.280;19.160;2023-04-24T02:38:40;97462.09;;;18.98;42.36
66857;BME280;53766;50.280;19.160;2023-04-24T02:41:07;97462.09;;;18.98;42.37
66857;BME280;53766;50.280;19.160;2023-04-24T02:43:34;97462.09;;;18.98;42.64
66857;BME280;53766;50.280;19.160;2023-04-24T02:46:02;97461.28;;;18.97;42.59
66857;BME280;53766;50.280;19.160;2023-04-24T02:48:29;97465.81;;;18.97;42.44
66857;BME280;53766;50.280;19.160;2023-04-24T02:50:58;97464.97;;;18.96;42.47
66857;BME280;53766;50.280;19.160;2023-04-24T02:53:25;97465.81;;;18.97;42.40
66857;BME280;53766;50.280;19.160;2023-04-24T02:55:53;97454.31;;;18.96;42.60
66857;BME280;53766;50.280;19.160;2023-04-24T02:58:21;97464.97;;;18.96;42.51
66857;BME280;53766;50.280;19.160;2023-04-24T03:00:48;97462.31;;;18.96;42.56
66857;BME280;53766;50.280;19.160;2023-04-24T03:03:15;97465.81;;;18.97;42.46
66857;BME280;53766;50.280;19.160;2023-04-24T03:05:43;97468.72;;;18.95;42.71
66857;BME280;53766;50.280;19.160;2023-04-24T03:08:10;97464.19;;;18.96;42.54
66857;BME280;53766;50.280;19.160;2023-04-24T03:10:38;97464.19;;;18.96;42.61
66857;BME280;53766;50.280;19.160;2023-04-24T03:13:05;97466.03;;;18.95;42.57
66857;BME280;53766;50.280;19.160;2023-04-24T03:15:33;97465.22;;;18.95;42.61
66857;BME280;53766;50.280;19.160;2023-04-24T03:18:00;97467.91;;;18.95;42.68
66857;BME280;53766;50.280;19.160;2023-04-24T03:20:29;97467.06;;;18.94;42.75
66857;BME280;53766;50.280;19.160;2023-04-24T03:22:56;97460.94;;;18.94;42.77
66857;BME280;53766;50.280;19.160;2023-04-24T03:25:24;97460.13;;;18.93;42.79
66857;BME280;53766;50.280;19.160;2023-04-24T03:27:52;97455.59;;;18.94;42.78
66857;BME280;53766;50.280;19.160;2023-04-24T03:30:19;97465.47;;;18.93;42.87
66857;BME280;53766;50.280;19.160;2023-04-24T03:32:46;97447.81;;;18.92;42.93
66857;BME280;53766;50.280;19.160;2023-04-24T03:35:14;97456.66;;;18.93;42.90
66857;BME280;53766;50.280;19.160;2023-04-24T03:37:41;97455.00;;;18.91;42.96
66857;BME280;53766;50.280;19.160;2023-04-24T03:40:09;97458.72;;;18.90;42.77
66857;BME280;53766;50.280;19.160;2023-04-24T03:42:36;97461.16;;;18.92;42.90
66857;BME280;53766;50.280;19.160;2023-04-24T03:45:07;97452.34;;;18.91;42.80
66857;BME280;53766;50.280;19.160;2023-04-24T03:47:34;97458.47;;;18.92;43.05
66857;BME280;53766;50.280;19.160;2023-04-24T03:50:02;97453.16;;;18.92;42.94
66857;BME280;53766;50.280;19.160;2023-04-24T03:52:29;97462.19;;;18.91;42.82
66857;BME280;53766;50.280;19.160;2023-04-24T03:54:57;97465.69;;;18.91;43.01
66857;BME280;53766;50.280;19.160;2023-04-24T03:57:24;97457.69;;;18.91;42.89
66857;BME280;53766;50.280;19.160;2023-04-24T03:59:52;97466.72;;;18.90;42.99
66857;BME280;53766;50.280;19.160;2023-04-24T04:02:20;97461.41;;;18.90;43.04
66857;BME280;53766;50.280;19.160;2023-04-24T04:04:48;97463.00;;;18.91;42.76
66857;BME280;53766;50.280;19.160;2023-04-24T04:07:16;97460.34;;;18.91;43.02
66857;BME280;53766;50.280;19.160;2023-04-24T04:09:44;97457.69;;;18.91;42.89
66857;BME280;53766;50.280;19.160;2023-04-24T04:12:11;97456.88;;;18.91;43.03
66857;BME280;53766;50.280;19.160;2023-04-24T04:14:40;97452.34;;;18.91;43.05
66857;BME280;53766;50.280;19.160;2023-04-24T04:17:07;97456.88;;;18.91;42.86
66857;BME280;53766;50.280;19.160;2023-04-24T04:19:34;97457.69;;;18.91;42.82
66857;BME280;53766;50.280;19.160;2023-04-24T04:22:02;97455.00;;;18.91;43.07
66857;BME280;53766;50.280;19.160;2023-04-24T04:24:29;97460.94;;;18.94;43.23
66857;BME280;53766;50.280;19.160;2023-04-24T04:26:56;97460.94;;;18.94;43.61
66857;BME280;53766;50.280;19.160;2023-04-24T04:29:25;97463.38;;;18.95;43.47
66857;BME280;53766;50.280;19.160;2023-04-24T04:31:53;97459.31;;;18.93;43.12
66857;BME280;53766;50.280;19.160;2023-04-24T04:34:20;97458.72;;;18.90;43.04
66857;BME280;53766;50.280;19.160;2023-04-24T04:36:48;97454.69;;;18.88;43.00
66857;BME280;53766;50.280;19.160;2023-04-24T04:39:16;97454.91;;;18.86;42.74
66857;BME280;53766;50.280;19.160;2023-04-24T04:41:44;97460.69;;;18.83;42.50
66857;BME280;53766;50.280;19.160;2023-04-24T04:44:13;97462.75;;;18.81;41.74
66857;BME280;53766;50.280;19.160;2023-04-24T04:46:41;97465.09;;;18.89;41.65
66857;BME280;53766;50.280;19.160;2023-04-24T04:49:09;97454.91;;;18.86;41.76
66857;BME280;53766;50.280;19.160;2023-04-24T04:51:37;97461.50;;;18.96;41.22
66857;BME280;53766;50.280;19.160;2023-04-24T04:54:07;97461.72;;;18.94;41.31
66857;BME280;53766;50.280;19.160;2023-04-24T04:56:34;97456.06;;;18.90;41.23
66857;BME280;53766;50.280;19.160;2023-04-24T04:59:02;97457.34;;;18.88;41.44
66857;BME280;53766;50.280;19.160;2023-04-24T05:01:29;97460.22;;;18.86;41.47
66857;BME280;53766;50.280;19.160;2023-04-24T05:03:57;97456.97;;;18.84;41.50
66857;BME280;53766;50.280;19.160;2023-04-24T05:06:24;97456.97;;;18.84;41.65
66857;BME280;53766;50.280;19.160;2023-04-24T05:08:53;97461.03;;;18.87;41.60
66857;BME280;53766;50.280;19.160;2023-04-24T05:11:24;97455.69;;;18.87;41.75
66857;BME280;53766;50.280;19.160;2023-04-24T05:13:51;97463.47;;;18.88;41.76
66857;BME280;53766;50.280;19.160;2023-04-24T05:16:19;97462.44;;;18.89;41.76
66857;BME280;53766;50.280;19.160;2023-04-24T05:18:46;97462.19;;;18.91;41.89
66857;BME280;53766;50.280;19.160;2023-04-24T05:21:14;97463.81;;;18.92;41.92
66857;BME280;53766;50.280;19.160;2023-04-24T05:23:41;97464.66;;;18.93;41.76
66857;BME280;53766;50.280;19.160;2023-04-24T05:26:09;97461.72;;;18.94;41.78
66857;BME280;53766;50.280;19.160;2023-04-24T05:28:36;97463.38;;;18.95;41.83
66857;BME280;53766;50.280;19.160;2023-04-24T05:31:04;97462.31;;;18.96;41.75
66857;BME280;53766;50.280;19.160;2023-04-24T05:33:32;97462.09;;;18.98;41.74
66857;BME280;53766;50.280;19.160;2023-04-24T05:35:59;97453.03;;;18.99;41.63
66857;BME280;53766;50.280;19.160;2023-04-24T05:38:26;97457.34;;;19.00;41.66
66857;BME280;53766;50.280;19.160;2023-04-24T05:40:54;97456.28;;;19.01;41.42
66857;BME280;53766;50.280;19.160;2023-04-24T05:43:21;97460.38;;;19.03;41.49
66857;BME280;53766;50.280;19.160;2023-04-24T05:45:49;97450.50;;;19.04;41.45
66857;BME280;53766;50.280;19.160;2023-04-24T05:48:16;97454.78;;;19.05;41.44
66857;BME280;53766;50.280;19.160;2023-04-24T05:50:44;97448.41;;;19.06;41.58
66857;BME280;53766;50.280;19.160;2023-04-24T05:53:11;97457.00;;;19.08;41.65
66857;BME280;53766;50.280;19.160;2023-04-24T05:55:39;97458.59;;;19.09;41.49
66857;BME280;53766;50.280;19.160;2023-04-24T05:58:06;97444.25;;;19.10;41.54
66857;BME280;53766;50.280;19.160;2023-04-24T06:00:34;97447.72;;;19.10;41.57
66857;BME280;53766;50.280;19.160;2023-04-24T06:03:02;97445.84;;;19.11;41.67
66857;BME280;53766;50.280;19.160;2023-04-24T06:05:31;97445.84;;;19.11;41.49
66857;BME280;53766;50.280;19.160;2023-04-24T06:07:59;97446.66;;;19.11;41.58
66857;BME280;53766;50.280;19.160;2023-04-24T06:10:26;97437.84;;;19.11;41.45
66857;BME280;53766;50.280;19.160;2023-04-24T06:12:54;97436.81;;;19.12;41.46
66857;BME280;53766;50.280;19.160;2023-04-24T06:15:29;97441.91;;;19.14;41.57
66857;BME280;53766;50.280;19.160;2023-04-24T06:17:57;97437.41;;;19.14;41.37
66857;BME280;53766;50.280;19.160;2023-04-24T06:20:25;97445.41;;;19.14;41.60
66857;BME280;53766;50.280;19.160;2023-04-24T06:22:53;97440.88;;;19.15;41.53
66857;BME280;53766;50.280;19.160;2023-04-24T06:25:20;97439.00;;;19.15;41.64
66857;BME280;53766;50.280;19.160;2023-04-24T06:27:48;97431.56;;;19.17;41.68
66857;BME280;53766;50.280;19.160;2023-04-24T06:30:15;97428.91;;;19.17;41.46
66857;BME280;53766;50.280;19.160;2023-04-24T06:32:43;97439.59;;;19.17;41.42
66857;BME280;53766;50.280;19.160;2023-04-24T06:35:10;97434.25;;;19.17;41.51
66857;BME280;53766;50.280;19.160;2023-04-24T06:37:40;97430.53;;;19.18;41.42
66857;BME280;53766;50.280;19.160;2023-04-24T06:40:08;97427.03;;;19.18;41.51
66857;BME280;53766;50.280;19.160;2023-04-24T06:42:36;97426.81;;;19.19;41.59
66857;BME280;53766;50.280;19.160;2023-04-24T06:45:04;97426.81;;;19.19;41.69
66857;BME280;53766;50.280;19.160;2023-04-24T06:47:32;97431.09;;;19.20;41.38
66857;BME280;53766;50.280;19.160;2023-04-24T06:50:00;97421.25;;;19.21;41.34
66857;BME280;53766;50.280;19.160;2023-04-24T06:52:27;97427.41;;;19.21;41.45
66857;BME280;53766;50.280;19.160;2023-04-24T06:55:00;97418.34;;;19.22;41.46
66857;BME280;53766;50.280;19.160;2023-04-24T06:57:29;97422.63;;;19.23;41.43
66857;BME280;53766;50.280;19.160;2023-04-24T06:59:56;97426.91;;;19.24;41.56
66857;BME280;53766;50.280;19.160;2023-04-24T07:02:24;97416.25;;;19.24;41.24
66857;BME280;53766;50.280;19.160;2023-04-24T07:04:52;97420.56;;;19.25;41.45
66857;BME280;53766;50.280;19.160;2023-04-24T07:07:20;97416.81;;;19.26;41.39
66857;BME280;53766;50.280;19.160;2023-04-24T07:09:51;97413.34;;;19.26;41.06
66857;BME280;53766;50.280;19.160;2023-04-24T07:12:18;97411.47;;;19.26;41.18
66857;BME280;53766;50.280;19.160;2023-04-24T07:14:47;97403.25;;;19.28;41.23
66857;BME280;53766;50.280;19.160;2023-04-24T07:17:15;97410.19;;;19.29;41.08
66857;BME280;53766;50.280;19.160;2023-04-24T07:19:42;97403.03;;;19.29;41.13
66857;BME280;53766;50.280;19.160;2023-04-24T07:22:10;97399.53;;;19.29;40.80
66857;BME280;53766;50.280;19.160;2023-04-24T07:24:44;97403.59;;;19.31;40.96
66857;BME280;53766;50.280;19.160;2023-04-24T07:27:12;97404.41;;;19.32;40.90
66857;BME280;53766;50.280;19.160;2023-04-24T07:29:42;97393.47;;;19.33;40.83
66857;BME280;53766;50.280;19.160;2023-04-24T07:32:10;97401.47;;;19.33;40.67
66857;BME280;53766;50.280;19.160;2023-04-24T07:34:38;97396.97;;;19.34;40.87
66857;BME280;53766;50.280;19.160;2023-04-24T07:37:05;97395.13;;;19.35;40.67
66857;BME280;53766;50.280;19.160;2023-04-24T07:39:33;97392.44;;;19.35;40.75
66857;BME280;53766;50.280;19.160;2023-04-24T07:42:00;97394.06;;;19.36;40.71
66857;BME280;53766;50.280;19.160;2023-04-24T07:44:29;97394.88;;;19.36;40.70
66857;BME280;53766;50.280;19.160;2023-04-24T07:46:56;97386.63;;;19.38;40.51
66857;BME280;53766;50.280;19.160;2023-04-24T07:49:24;97382.91;;;19.39;40.39
66857;BME280;53766;50.280;19.160;2023-04-24T07:51:51;97391.50;;;19.41;40.34
66857;BME280;53766;50.280;19.160;2023-04-24T07:54:19;97390.69;;;19.40;40.47
66857;BME280;53766;50.280;19.160;2023-04-24T07:56:46;97389.63;;;19.41;40.29
66857;BME280;53766;50.280;19.160;2023-04-24T07:59:13;97389.41;;;19.43;40.26
66857;BME280;53766;50.280;19.160;2023-04-24T08:01:41;97387.31;;;19.45;40.24
66857;BME280;53766;50.280;19.160;2023-04-24T08:04:08;97382.78;;;19.45;40.02
66857;BME280;53766;50.280;19.160;2023-04-24T08:06:36;97381.97;;;19.45;40.21
66857;BME280;53766;50.280;19.160;2023-04-24T08:09:04;97378.25;;;19.46;40.11
66857;BME280;53766;50.280;19.160;2023-04-24T08:11:31;97379.88;;;19.47;39.96
66857;BME280;53766;50.280;19.160;2023-04-24T08:13:59;97376.16;;;19.48;39.74
66857;BME280;53766;50.280;19.160;2023-04-24T08:16:27;97372.44;;;19.49;39.78
66857;BME280;53766;50.280;19.160;2023-04-24T08:18:55;97373.00;;;19.51;39.67
66857;BME280;53766;50.280;19.160;2023-04-24T08:21:22;97364.97;;;19.51;39.75
66857;BME280;53766;50.280;19.160;2023-04-24T08:23:50;97369.28;;;19.52;39.72
66857;BME280;53766;50.280;19.160;2023-04-24T08:26:17;97363.94;;;19.52;39.63
66857;BME280;53766;50.280;19.160;2023-04-24T08:28:44;97358.38;;;19.53;39.74
66857;BME280;53766;50.280;19.160;2023-04-24T08:31:12;97360.78;;;19.55;39.82
66857;BME280;53766;50.280;19.160;2023-04-24T08:33:39;97357.09;;;19.56;39.69
66857;BME280;53766;50.280;19.160;2023-04-24T08:36:08;97362.44;;;19.56;39.73
66857;BME280;53766;50.280;19.160;2023-04-24T08:38:35;97356.28;;;19.56;39.79
66857;BME280;53766;50.280;19.160;2023-04-24T08:41:03;97353.38;;;19.57;39.71
66857;BME280;53766;50.280;19.160;2023-04-24T08:43:33;97357.09;;;19.56;39.73
66857;BME280;53766;50.280;19.160;2023-04-24T08:46:03;97358.69;;;19.57;39.67
66857;BME280;53766;50.280;19.160;2023-04-24T08:48:38;97358.69;;;19.57;39.21
66857;BME280;53766;50.280;19.160;2023-04-24T08:51:07;97356.59;;;19.59;39.58
66857;BME280;53766;50.280;19.160;2023-04-24T08:53:35;97352.91;;;19.60;39.40
66857;BME280;53766;50.280;19.160;2023-04-24T08:56:03;97352.06;;;19.60;39.43
66857;BME280;53766;50.280;19.160;2023-04-24T08:58:31;97351.84;;;19.61;39.28
66857;BME280;53766;50.280;19.160;2023-04-24T09:01:00;97358.81;;;19.62;39.11
66857;BME280;53766;50.280;19.160;2023-04-24T09:03:28;97351.38;;;19.64;39.24
66857;BME280;53766;50.280;19.160;2023-04-24T09:05:57;97345.78;;;19.66;39.54
66857;BME280;53766;50.280;19.160;2023-04-24T09:08:25;97352.75;;;19.67;39.37
66857;BME280;53766;50.280;19.160;2023-04-24T09:10:53;97353.56;;;19.67;39.45
66857;BME280;53766;50.280;19.160;2023-04-24T09:13:21;97350.91;;;19.67;39.54
66857;BME280;53766;50.280;19.160;2023-04-24T09:15:49;97344.28;;;19.70;39.38
66857;BME280;53766;50.280;19.160;2023-04-24T09:18:17;97351.50;;;19.69;39.57
66857;BME280;53766;50.280;19.160;2023-04-24T09:21:02;97344.06;;;19.71;39.46
66857;BME280;53766;50.280;19.160;2023-04-24T09:23:31;97348.09;;;19.74;39.55
66857;BME280;53766;50.280;19.160;2023-04-24T09:26:00;97341.97;;;19.73;39.64
66857;BME280;53766;50.280;19.160;2023-04-24T09:28:34;97337.19;;;19.76;39.58
66857;BME280;53766;50.280;19.160;2023-04-24T09:31:13;97338.81;;;19.77;39.63
66857;BME280;53766;50.280;19.160;2023-04-24T09:33:57;97334.03;;;19.79;39.62
66857;BME280;53766;50.280;19.160;2023-04-24T09:39:02;97333.31;;;19.83;39.66
66857;BME280;53766;50.280;19.160;2023-04-24T09:41:32;97325.28;;;19.83;39.63
66857;BME280;53766;50.280;19.160;2023-04-24T09:44:14;97327.72;;;19.85;39.58
66857;BME280;53766;50.280;19.160;2023-04-24T09:46:43;97322.97;;;19.87;39.73
66857;BME280;53766;50.280;19.160;2023-04-24T09:49:13;97327.25;;;19.88;39.48
66857;BME280;53766;50.280;19.160;2023-04-24T09:51:43;97312.03;;;19.88;39.62
66857;BME280;53766;50.280;19.160;2023-04-24T09:54:17;97309.09;;;19.90;39.64
66857;BME280;53766;50.280;19.160;2023-04-24T09:56:47;97309.09;;;19.90;39.59
66857;BME280;53766;50.280;19.160;2023-04-24T09:59:16;97306.44;;;19.90;39.64
66857;BME280;53766;50.280;19.160;2023-04-24T10:01:43;97312.63;;;19.90;39.60
66857;BME280;53766;50.280;19.160;2023-04-24T10:04:26;97317.97;;;19.90;39.83
66857;BME280;53766;50.280;19.160;2023-04-24T10:06:56;97307.28;;;19.90;39.60
66857;BME280;53766;50.280;19.160;2023-04-24T10:09:25;97309.69;;;19.92;39.56
66857;BME280;53766;50.280;19.160;2023-04-24T10:11:54;97304.34;;;19.92;39.78
66857;BME280;53766;50.280;19.160;2023-04-24T10:14:23;97300.63;;;19.93;39.67
66857;BME280;53766;50.280;19.160;2023-04-24T10:16:55;97303.28;;;19.93;39.83
66857;BME280;53766;50.280;19.160;2023-04-24T10:19:25;97304.34;;;19.92;39.88
66857;BME280;53766;50.280;19.160;2023-04-24T10:21:53;97304.91;;;19.94;39.65
66857;BME280;53766;50.280;19.160;2023-04-24T10:24:22;97303.28;;;19.93;39.59
66857;BME280;53766;50.280;19.160;2023-04-24T10:26:50;97305.97;;;19.93;39.62
66857;BME280;53766;50.280;19.160;2023-04-24T10:29:18;97306.78;;;19.93;39.50
66857;BME280;53766;50.280;19.160;2023-04-24T10:31:46;97304.09;;;19.93;39.66
66857;BME280;53766;50.280;19.160;2023-04-24T10:34:16;97309.22;;;19.95;39.76
66857;BME280;53766;50.280;19.160;2023-04-24T10:36:50;97295.84;;;19.95;39.60
66857;BME280;53766;50.280;19.160;2023-04-24T10:39:19;97295.84;;;19.95;39.51
66857;BME280;53766;50.280;19.160;2023-04-24T10:41:54;97301.78;;;19.97;39.56
66857;BME280;53766;50.280;19.160;2023-04-24T10:44:24;97295.34;;;19.98;39.49
66857;BME280;53766;50.280;19.160;2023-04-24T10:46:55;97298.59;;;20.00;39.32
66857;BME280;53766;50.280;19.160;2023-04-24T10:49:30;97286.88;;;20.01;39.46
66857;BME280;53766;50.280;19.160;2023-04-24T10:52:02;97285.00;;;20.02;39.50
66857;BME280;53766;50.280;19.160;2023-04-24T10:57:34;97280.78;;;20.06;39.43
66857;BME280;53766;50.280;19.160;2023-04-24T11:00:18;97284.28;;;20.06;39.46
66857;BME280;53766;50.280;19.160;2023-04-24T11:02:47;97278.13;;;20.06;39.30
66857;BME280;53766;50.280;19.160;2023-04-24T11:05:18;97278.34;;;20.04;39.19
66857;BME280;53766;50.280;19.160;2023-04-24T11:08:13;97273.00;;;20.04;39.32
66857;BME280;53766;50.280;19.160;2023-04-24T11:10:44;97280.47;;;20.02;39.18
66857;BME280;53766;50.280;19.160;2023-04-24T11:13:16;97275.13;;;20.02;39.32
66857;BME280;53766;50.280;19.160;2023-04-24T11:15:44;97282.06;;;20.03;39.45
66857;BME280;53766;50.280;19.160;2023-04-24T11:18:15;97284.19;;;20.01;39.39
66857;BME280;53766;50.280;19.160;2023-04-24T11:20:44;97300.25;;;20.01;39.37
66857;BME280;53766;50.280;19.160;2023-04-24T11:23:12;97293.25;;;20.00;39.41
66857;BME280;53766;50.280;19.160;2023-04-24T11:25:41;97296.16;;;19.99;39.46
66857;BME280;53766;50.280;19.160;2023-04-24T11:28:14;97293.75;;;19.97;39.46
66857;BME280;53766;50.280;19.160;2023-04-24T11:30:43;97307.91;;;19.98;39.22
66857;BME280;53766;50.280;19.160;2023-04-24T11:33:10;97320.47;;;19.97;39.37
66857;BME280;53766;50.280;19.160;2023-04-24T11:35:40;97308.16;;;19.96;39.44
66857;BME280;53766;50.280;19.160;2023-04-24T11:38:09;97311.88;;;19.95;39.31
66857;BME280;53766;50.280;19.160;2023-04-24T11:40:40;97311.88;;;19.95;39.34
66857;BME280;53766;50.280;19.160;2023-04-24T11:43:10;97304.91;;;19.94;39.24
66857;BME280;53766;50.280;19.160;2023-04-24T11:45:37;97303.28;;;19.93;39.42
66857;BME280;53766;50.280;19.160;2023-04-24T11:48:05;97297.97;;;19.93;39.07
66857;BME280;53766;50.280;19.160;2023-04-24T11:50:32;97301.66;;;19.92;39.03
66857;BME280;53766;50.280;19.160;2023-04-24T11:53:00;97299.00;;;19.92;39.07
66857;BME280;53766;50.280;19.160;2023-04-24T11:55:28;97300.06;;;19.91;39.15
66857;BME280;53766;50.280;19.160;2023-04-24T11:57:58;97300.84;;;19.91;38.99
66857;BME280;53766;50.280;19.160;2023-04-24T12:00:28;97300.06;;;19.91;39.15
66857;BME280;53766;50.280;19.160;2023-04-24T12:03:10;97292.03;;;19.91;39.11
66857;BME280;53766;50.280;19.160;2023-04-24T12:05:39;97297.38;;;19.91;38.93
66857;BME280;53766;50.280;19.160;2023-04-24T12:08:07;97293.06;;;19.90;39.01
66857;BME280;53766;50.280;19.160;2023-04-24T12:10:35;97290.41;;;19.90;38.99
66857;BME280;53766;50.280;19.160;2023-04-24T12:13:03;97295.50;;;19.91;39.01
66857;BME280;53766;50.280;19.160;2023-04-24T12:15:30;97294.72;;;19.91;39.11
66857;BME280;53766;50.280;19.160;2023-04-24T12:17:58;97288.88;;;19.94;39.10
66857;BME280;53766;50.280;19.160;2023-04-24T12:20:31;97293.75;;;19.97;38.99
66857;BME280;53766;50.280;19.160;2023-04-24T12:23:00;97288.72;;;20.01;38.91
66857;BME280;53766;50.280;19.160;2023-04-24T12:25:30;97285.81;;;20.02;38.87
66857;BME280;53766;50.280;19.160;2023-04-24T12:30:34;97289.53;;;20.01;38.98
66857;BME280;53766;50.280;19.160;2023-04-24T12:33:02;97289.53;;;20.01;38.88
66857;BME280;53766;50.280;19.160;2023-04-24T12:35:32;97292.22;;;20.01;39.01
66857;BME280;53766;50.280;19.160;2023-04-24T12:38:15;97290.34;;;20.02;38.98
66857;BME280;53766;50.280;19.160;2023-04-24T12:40:43;97276.72;;;20.03;38.90
66857;BME280;53766;50.280;19.160;2023-04-24T12:43:18;97289.06;;;20.04;38.74
66857;BME280;53766;50.280;19.160;2023-04-24T12:45:47;97311.47;;;20.03;38.82
66857;BME280;53766;50.280;19.160;2023-04-24T12:48:14;97291.16;;;20.02;39.08
66857;BME280;53766;50.280;19.160;2023-04-24T12:50:43;97295.69;;;20.02;38.99
66857;BME280;53766;50.280;19.160;2023-04-24T12:53:13;97300.25;;;20.01;38.94
66857;BME280;53766;50.280;19.160;2023-04-24T12:55:41;97307.19;;;20.02;38.81
66857;BME280;53766;50.280;19.160;2023-04-24T12:58:09;97294.88;;;20.01;38.76
66857;BME280;53766;50.280;19.160;2023-04-24T13:00:38;97297.56;;;20.01;38.91
66857;BME280;53766;50.280;19.160;2023-04-24T13:03:06;97304.75;;;20.01;38.99
66857;BME280;53766;50.280;19.160;2023-04-24T13:05:33;97292.22;;;20.01;39.05